createdAt,value
2023-03-21T00:00:17.277Z,5.35
2023-03-21T00:02:43.697Z,5.30
2023-03-21T00:05:15.812Z,5.07
2023-03-21T00:07:42.734Z,5.05
2023-03-21T00:12:58.413Z,4.93
2023-03-21T00:15:39.966Z,5.00
2023-03-21T00:18:11.249Z,4.75
2023-03-21T00:20:37.808Z,5.13
2023-03-21T00:23:04.503Z,5.03
2023-03-21T00:25:33.069Z,4.78
2023-03-21T00:28:07.791Z,4.95
2023-03-21T00:30:34.911Z,5.10
2023-03-21T00:33:12.088Z,5.20
2023-03-21T00:35:58.347Z,5.07
2023-03-21T00:38:28.694Z,4.65
2023-03-21T00:40:55.709Z,5.60
2023-03-21T00:43:30.162Z,5.20
2023-03-21T00:45:58.396Z,5.50
2023-03-21T00:48:26.028Z,6.03
2023-03-21T00:50:54.360Z,5.97
2023-03-21T00:53:21.228Z,6.28
2023-03-21T00:55:48.196Z,5.85
2023-03-21T00:58:14.656Z,5.70
2023-03-21T01:00:41.279Z,5.82
2023-03-21T01:03:23.200Z,6.45
2023-03-21T01:06:04.480Z,5.65
2023-03-21T01:08:52.236Z,5.80
2023-03-21T01:11:22.521Z,5.28
2023-03-21T01:14:07.160Z,5.22
2023-03-21T01:16:34.346Z,4.78
2023-03-21T01:19:04.788Z,4.95
2023-03-21T01:21:31.929Z,5.53
2023-03-21T01:23:58.276Z,6.10
2023-03-21T01:26:24.740Z,6.32
2023-03-21T01:28:51.101Z,5.18
2023-03-21T01:31:18.228Z,5.75
2023-03-21T01:33:44.982Z,5.68
2023-03-21T01:36:22.673Z,5.25
2023-03-21T01:38:50.353Z,5.78
2023-03-21T01:41:42.037Z,5.80
2023-03-21T01:44:16.955Z,5.95
2023-03-21T01:49:34.957Z,6.07
2023-03-21T01:52:13.073Z,5.57
2023-03-21T01:54:43.449Z,5.85
2023-03-21T01:57:13.477Z,6.05
2023-03-21T01:59:45.892Z,5.78
2023-03-21T02:02:17.808Z,5.60
2023-03-21T02:04:55.973Z,5.30
2023-03-21T02:07:28.830Z,5.25
2023-03-21T02:09:56.130Z,5.88
2023-03-21T02:12:22.549Z,5.22
2023-03-21T02:14:49.679Z,5.50
2023-03-21T02:17:32.472Z,5.70
2023-03-21T02:20:13.523Z,5.20
2023-03-21T02:23:10.599Z,5.85
2023-03-21T02:25:55.149Z,5.15
2023-03-21T02:28:41.864Z,5.90
2023-03-21T02:31:32.139Z,5.85
2023-03-21T02:34:50.053Z,5.07
2023-03-21T02:37:44.654Z,5.78
2023-03-21T02:40:31.429Z,5.05
2023-03-21T02:43:23.274Z,4.95
2023-03-21T02:46:14.677Z,4.65
2023-03-21T02:48:51.904Z,4.72
2023-03-21T02:51:21.715Z,4.30
2023-03-21T02:54:12.965Z,4.85
2023-03-21T02:56:40.420Z,5.20
2023-03-21T02:59:07.818Z,4.72
2023-03-21T03:01:34.263Z,5.68
2023-03-21T03:04:00.964Z,5.25
2023-03-21T03:06:47.653Z,5.55
2023-03-21T03:09:22.796Z,4.90
2023-03-21T03:11:53.479Z,5.53
2023-03-21T03:14:59.885Z,4.93
2023-03-21T03:17:39.411Z,5.35
2023-03-21T03:20:15.426Z,4.93
2023-03-21T03:22:54.812Z,4.70
2023-03-21T03:25:39.859Z,5.13
2023-03-21T03:28:08.366Z,4.68
2023-03-21T03:30:44.741Z,5.07
2023-03-21T03:33:17.226Z,5.00
2023-03-21T03:35:48.290Z,5.38
2023-03-21T03:38:21.479Z,5.68
2023-03-21T03:40:55.871Z,5.75
2023-03-21T03:43:26.677Z,5.50
2023-03-21T03:46:12.642Z,5.30
2023-03-21T03:48:50.142Z,5.50
2023-03-21T03:51:38.674Z,4.90
2023-03-21T03:54:09.015Z,5.22
2023-03-21T03:56:36.294Z,5.30
2023-03-21T03:59:04.389Z,5.47
2023-03-21T04:01:31.113Z,5.38
2023-03-21T04:04:10.597Z,4.93
2023-03-21T04:06:39.392Z,5.30
2023-03-21T04:09:19.199Z,4.68
2023-03-21T04:11:47.150Z,3.70
2023-03-21T04:14:13.512Z,5.18
2023-03-21T04:16:39.938Z,4.65
2023-03-21T04:19:06.313Z,4.28
2023-03-21T04:21:32.663Z,4.95
2023-03-21T04:23:59.513Z,5.15
2023-03-21T04:26:31.022Z,4.65
2023-03-21T04:28:57.333Z,5.03
2023-03-21T04:31:27.224Z,5.07
2023-03-21T04:33:55.744Z,4.78
2023-03-21T04:36:33.256Z,5.60
2023-03-21T04:39:01.389Z,6.03
2023-03-21T04:41:28.624Z,5.60
2023-03-21T04:43:55.922Z,4.50
2023-03-21T04:46:22.769Z,4.78
2023-03-21T04:48:49.606Z,4.47
2023-03-21T04:51:16.329Z,5.22
2023-03-21T04:53:45.685Z,4.40
2023-03-21T04:56:12.408Z,4.05
2023-03-21T04:58:40.542Z,3.30
2023-03-21T05:01:07.505Z,3.63
2023-03-21T05:03:40.149Z,4.07
2023-03-21T05:06:10.231Z,3.95
2023-03-21T05:08:36.846Z,4.20
2023-03-21T05:11:04.386Z,5.13
2023-03-21T05:13:30.803Z,4.05
2023-03-21T05:15:57.181Z,4.68
2023-03-21T05:18:24.993Z,5.68
2023-03-21T05:20:55.574Z,5.03
2023-03-21T05:23:23.130Z,4.72
2023-03-21T05:25:49.962Z,4.78
2023-03-21T05:28:19.740Z,5.00
2023-03-21T05:30:46.684Z,4.63
2023-03-21T05:33:13.591Z,4.95
2023-03-21T05:35:40.470Z,4.50
2023-03-21T05:38:06.968Z,4.85
2023-03-21T05:40:33.292Z,5.10
2023-03-21T05:42:59.631Z,5.60
2023-03-21T05:45:26.116Z,5.50
2023-03-21T05:47:52.806Z,5.70
2023-03-21T05:50:19.328Z,7.20
2023-03-21T05:52:45.728Z,8.43
2023-03-21T05:55:12.141Z,7.85
2023-03-21T05:57:40.856Z,6.93
2023-03-21T06:00:08.696Z,4.90
2023-03-21T06:02:35.205Z,4.90
2023-03-21T06:05:01.643Z,3.72
2023-03-21T06:07:28.053Z,4.15
2023-03-21T06:09:54.503Z,4.28
2023-03-21T06:12:20.871Z,3.42
2023-03-21T06:14:47.195Z,3.88
2023-03-21T06:17:13.516Z,4.43
2023-03-21T06:19:39.989Z,4.10
2023-03-21T06:22:06.354Z,5.07
2023-03-21T06:24:32.847Z,5.53
2023-03-21T06:26:59.237Z,4.68
2023-03-21T06:29:25.699Z,4.47
2023-03-21T06:31:52.023Z,4.63
2023-03-21T06:34:18.410Z,4.82
2023-03-21T06:36:46.658Z,4.10
2023-03-21T06:39:13.292Z,4.35
2023-03-21T06:41:39.647Z,4.43
2023-03-21T06:44:06.071Z,4.25
2023-03-21T06:46:32.531Z,4.10
2023-03-21T06:48:59.279Z,4.03
2023-03-21T06:51:25.820Z,4.55
2023-03-21T06:53:52.178Z,4.35
2023-03-21T06:56:18.805Z,4.53
2023-03-21T06:58:45.289Z,5.00
2023-03-21T07:01:11.763Z,4.82
2023-03-21T07:03:39.386Z,4.93
2023-03-21T07:06:11.768Z,5.72
2023-03-21T07:08:39.349Z,6.10
2023-03-21T07:11:06.222Z,6.07
2023-03-21T07:13:33.145Z,5.22
2023-03-21T07:15:59.955Z,5.70
2023-03-21T07:18:26.837Z,4.90
2023-03-21T07:20:53.213Z,5.00
2023-03-21T07:23:21.099Z,4.82
2023-03-21T07:25:48.771Z,5.30
2023-03-21T07:28:16.186Z,4.90
2023-03-21T07:30:43.677Z,5.93
2023-03-21T07:33:10.384Z,4.93
2023-03-21T07:35:37.484Z,4.97
2023-03-21T07:38:05.242Z,5.28
2023-03-21T07:40:32.052Z,5.00
2023-03-21T07:42:58.383Z,5.60
2023-03-21T07:45:26.886Z,5.32
2023-03-21T07:47:54.467Z,5.35
2023-03-21T07:50:21.428Z,5.68
2023-03-21T07:52:47.936Z,6.38
2023-03-21T07:55:14.471Z,6.07
2023-03-21T07:57:40.983Z,6.93
2023-03-21T08:00:08.149Z,5.90
2023-03-21T08:02:34.646Z,7.15
2023-03-21T08:05:01.100Z,7.43
2023-03-21T08:07:27.710Z,7.00
2023-03-21T08:09:54.093Z,7.05
2023-03-21T08:12:20.540Z,6.50
2023-03-21T08:14:46.960Z,6.63
2023-03-21T08:17:13.482Z,6.55
2023-03-21T08:19:39.813Z,6.60
2023-03-21T08:22:06.567Z,6.65
2023-03-21T08:24:34.059Z,6.65
2023-03-21T08:27:01.428Z,6.57
2023-03-21T08:29:28.152Z,6.25
2023-03-21T08:31:54.576Z,7.38
2023-03-21T08:34:22.978Z,6.60
2023-03-21T08:36:49.335Z,6.93
2023-03-21T08:39:15.667Z,6.82
2023-03-21T08:41:41.975Z,6.25
2023-03-21T08:44:09.668Z,6.28
2023-03-21T08:46:36.083Z,6.15
2023-03-21T08:49:02.580Z,6.50
2023-03-21T08:51:28.953Z,7.10
2023-03-21T08:53:55.299Z,5.72
2023-03-21T08:56:21.720Z,5.95
2023-03-21T08:58:49.586Z,6.68
2023-03-21T09:01:16.040Z,6.10
2023-03-21T09:03:43.241Z,6.10
2023-03-21T09:06:12.114Z,5.32
2023-03-21T09:08:39.033Z,4.95
2023-03-21T09:11:06.007Z,5.35
2023-03-21T09:13:32.399Z,5.15
2023-03-21T09:16:01.206Z,5.68
2023-03-21T09:18:45.191Z,4.60
2023-03-21T09:21:13.254Z,5.10
2023-03-21T09:23:44.645Z,5.72
2023-03-21T09:26:11.294Z,5.38
2023-03-21T09:28:38.862Z,4.57
2023-03-21T09:31:06.336Z,4.80
2023-03-21T09:33:32.932Z,5.00
2023-03-21T09:36:00.402Z,4.75
2023-03-21T09:38:30.504Z,5.30
2023-03-21T09:40:59.737Z,5.60
2023-03-21T09:44:08.047Z,4.78
2023-03-21T09:46:57.764Z,5.03
2023-03-21T09:49:30.887Z,4.70
2023-03-21T09:51:59.592Z,5.88
2023-03-21T09:54:29.047Z,5.18
2023-03-21T09:56:57.423Z,5.80
2023-03-21T09:59:33.378Z,5.18
2023-03-21T10:02:00.554Z,4.57
2023-03-21T10:04:27.563Z,5.53
2023-03-21T10:06:57.744Z,5.45
2023-03-21T10:09:25.832Z,4.90
2023-03-21T10:11:56.001Z,5.55
2023-03-21T10:14:31.867Z,5.43
2023-03-21T10:17:26.262Z,5.07
2023-03-21T10:20:12.025Z,5.15
2023-03-21T10:22:38.653Z,5.15
2023-03-21T10:25:06.416Z,6.07
2023-03-21T10:27:34.306Z,5.90
2023-03-21T10:30:01.728Z,5.25
2023-03-21T10:32:28.314Z,5.72
2023-03-21T10:37:27.775Z,6.57
2023-03-21T10:39:55.179Z,7.07
2023-03-21T10:42:26.682Z,7.25
2023-03-21T10:44:57.391Z,7.30
2023-03-21T10:47:31.144Z,7.72
2023-03-21T10:50:11.864Z,5.35
2023-03-21T10:52:48.266Z,5.72
2023-03-21T10:55:29.505Z,5.75
2023-03-21T10:58:02.788Z,5.70
2023-03-21T11:00:34.192Z,5.53
2023-03-21T11:03:00.660Z,6.07
2023-03-21T11:05:27.886Z,6.70
2023-03-21T11:08:24.770Z,7.30
2023-03-21T11:10:55.399Z,6.55
2023-03-21T11:13:27.117Z,6.85
2023-03-21T11:15:56.197Z,7.38
2023-03-21T11:18:25.389Z,7.55
2023-03-21T11:20:59.215Z,8.55
2023-03-21T11:23:28.522Z,6.75
2023-03-21T11:25:55.571Z,6.88
2023-03-21T11:28:24.743Z,7.43
2023-03-21T11:30:59.012Z,7.95
2023-03-21T11:33:38.362Z,7.05
2023-03-21T11:36:28.014Z,5.97
2023-03-21T11:38:58.638Z,7.47
2023-03-21T11:41:33.167Z,6.18
2023-03-21T11:44:00.682Z,6.75
2023-03-21T11:46:29.528Z,6.75
2023-03-21T11:48:56.859Z,6.20
2023-03-21T11:51:29.368Z,6.00
2023-03-21T11:54:25.181Z,5.90
2023-03-21T11:56:54.121Z,5.50
2023-03-21T11:59:35.751Z,6.22
2023-03-21T12:02:22.153Z,6.15
2023-03-21T12:04:55.082Z,6.03
2023-03-21T12:07:42.524Z,6.15
2023-03-21T12:10:26.069Z,6.22
2023-03-21T12:13:10.451Z,6.32
2023-03-21T12:15:49.300Z,5.88
2023-03-21T12:18:44.287Z,5.05
2023-03-21T12:21:14.836Z,5.28
2023-03-21T12:23:50.441Z,4.93
2023-03-21T12:26:27.668Z,5.53
2023-03-21T12:29:13.501Z,5.57
2023-03-21T12:31:55.896Z,5.88
2023-03-21T12:34:33.126Z,5.85
2023-03-21T12:37:33.441Z,5.85
2023-03-21T12:40:22.626Z,5.35
2023-03-21T12:42:59.022Z,5.55
2023-03-21T12:45:37.340Z,6.32
2023-03-21T12:48:25.750Z,5.70
2023-03-21T12:50:54.212Z,5.43
2023-03-21T12:53:42.872Z,6.07
2023-03-21T12:56:15.073Z,6.15
2023-03-21T12:59:24.689Z,5.72
2023-03-21T13:01:54.991Z,6.20
2023-03-21T13:04:51.343Z,6.53
2023-03-21T13:07:19.967Z,6.35
2023-03-21T13:09:46.715Z,6.07
2023-03-21T13:12:26.369Z,7.10
2023-03-21T13:15:07.875Z,6.70
2023-03-21T13:17:44.276Z,7.47
2023-03-21T13:22:42.678Z,6.97
2023-03-21T13:25:23.164Z,7.88
2023-03-21T13:28:01.615Z,7.45
2023-03-21T13:30:29.619Z,8.02
2023-03-21T13:33:05.896Z,6.93
2023-03-21T13:35:43.662Z,7.97
2023-03-21T13:38:23.056Z,8.32
2023-03-21T13:40:52.034Z,7.95
2023-03-21T13:43:44.404Z,8.30
2023-03-21T13:46:11.847Z,7.97
2023-03-21T13:48:58.897Z,8.05
2023-03-21T13:51:28.780Z,8.73
2023-03-21T13:54:08.126Z,9.07
2023-03-21T13:56:46.812Z,8.85
2023-03-21T13:59:17.728Z,7.32
2023-03-21T14:02:17.619Z,7.40
2023-03-21T14:05:03.687Z,7.35
2023-03-21T14:07:36.070Z,8.82
2023-03-21T14:10:35.824Z,8.30
2023-03-21T14:13:03.380Z,8.10
2023-03-21T14:15:40.866Z,8.20
2023-03-21T14:18:28.141Z,8.55
2023-03-21T14:21:09.184Z,8.57
2023-03-21T14:23:38.489Z,8.57
2023-03-21T14:26:06.128Z,9.43
2023-03-21T14:28:33.488Z,8.75
2023-03-21T14:31:01.408Z,9.52
2023-03-21T14:33:41.494Z,7.93
2023-03-21T14:36:14.167Z,8.68
2023-03-21T14:38:41.239Z,7.53
2023-03-21T14:41:25.520Z,6.68
2023-03-21T14:44:02.545Z,5.55
2023-03-21T14:46:28.946Z,5.85
2023-03-21T14:48:55.726Z,5.93
2023-03-21T14:51:22.905Z,5.53
2023-03-21T14:53:49.322Z,6.38
2023-03-21T14:56:25.599Z,6.07
2023-03-21T14:58:52.212Z,6.30
2023-03-21T15:01:32.155Z,5.95
2023-03-21T15:04:00.732Z,5.63
2023-03-21T15:06:27.685Z,6.22
2023-03-21T15:08:58.835Z,6.47
2023-03-21T15:11:36.952Z,6.38
2023-03-21T15:14:06.188Z,5.65
2023-03-21T15:16:33.244Z,6.38
2023-03-21T15:19:01.777Z,6.63
2023-03-21T15:21:42.542Z,6.13
2023-03-21T15:24:16.216Z,6.63
2023-03-21T15:26:46.728Z,5.82
2023-03-21T15:29:14.137Z,6.22
2023-03-21T15:31:40.966Z,5.63
2023-03-21T15:34:08.248Z,7.75
2023-03-21T15:36:45.197Z,7.15
2023-03-21T15:39:16.605Z,5.80
2023-03-21T15:41:57.563Z,6.85
2023-03-21T15:44:23.962Z,7.07
2023-03-21T15:46:53.157Z,7.03
2023-03-21T15:49:25.311Z,6.38
2023-03-21T15:51:54.288Z,5.88
2023-03-21T15:54:30.798Z,7.15
2023-03-21T15:57:03.157Z,6.30
2023-03-21T15:59:33.681Z,7.28
2023-03-21T16:02:00.191Z,6.63
2023-03-21T16:04:26.852Z,6.68
2023-03-21T16:06:59.004Z,6.88
2023-03-21T16:09:25.608Z,6.65
2023-03-21T16:11:54.074Z,6.85
2023-03-21T16:14:21.811Z,6.75
2023-03-21T16:16:49.024Z,6.80
2023-03-21T16:19:15.772Z,7.50
2023-03-21T16:21:42.708Z,7.55
2023-03-21T16:24:12.179Z,6.90
2023-03-21T16:26:43.775Z,7.00
2023-03-21T16:29:12.033Z,6.82
2023-03-21T16:31:38.548Z,7.72
2023-03-21T16:34:05.053Z,7.95
2023-03-21T16:36:39.103Z,6.88
2023-03-21T16:39:16.273Z,7.35
2023-03-21T16:41:42.820Z,8.65
2023-03-21T16:44:09.810Z,7.75
2023-03-21T16:46:36.317Z,6.63
2023-03-21T16:49:02.834Z,6.60
2023-03-21T16:51:34.625Z,7.57
2023-03-21T16:54:01.530Z,7.18
2023-03-21T16:56:30.900Z,7.35
2023-03-21T16:58:57.818Z,6.60
2023-03-21T17:01:29.721Z,7.15
2023-03-21T17:03:57.820Z,8.63
2023-03-21T17:06:26.500Z,7.93
2023-03-21T17:08:53.773Z,7.90
2023-03-21T17:11:22.613Z,7.95
2023-03-21T17:13:53.634Z,7.10
2023-03-21T17:16:25.470Z,7.50
2023-03-21T17:18:53.055Z,8.00
2023-03-21T17:21:24.980Z,7.38
2023-03-21T17:23:52.315Z,7.93
2023-03-21T17:26:23.868Z,8.00
2023-03-21T17:28:50.688Z,6.70
2023-03-21T17:31:20.396Z,7.18
2023-03-21T17:33:47.514Z,7.22
2023-03-21T17:36:22.157Z,9.88
2023-03-21T17:38:48.621Z,8.65
2023-03-21T17:41:18.149Z,8.85
2023-03-21T17:43:45.086Z,8.57
2023-03-21T17:46:14.408Z,7.47
2023-03-21T17:48:41.144Z,8.50
2023-03-21T17:51:08.452Z,7.80
2023-03-21T17:53:34.789Z,8.35
2023-03-21T17:56:01.175Z,10.20
2023-03-21T17:58:28.280Z,8.10
2023-03-21T18:00:54.723Z,8.93
2023-03-21T18:03:21.249Z,8.02
2023-03-21T18:05:47.695Z,9.10
2023-03-21T18:08:14.065Z,9.57
2023-03-21T18:10:41.542Z,8.75
2023-03-21T18:13:08.947Z,8.23
2023-03-21T18:15:37.914Z,9.38
2023-03-21T18:18:04.723Z,8.82
2023-03-21T18:23:20.810Z,9.98
2023-03-21T18:25:47.218Z,10.30
2023-03-21T18:28:13.993Z,9.80
2023-03-21T18:31:07.098Z,10.95
2023-03-21T18:33:27.690Z,9.23
2023-03-21T18:35:59.167Z,9.27
2023-03-21T18:38:26.350Z,10.65
2023-03-21T18:40:52.741Z,10.25
2023-03-21T18:46:06.191Z,11.00
2023-03-21T18:48:37.034Z,10.65
2023-03-21T18:51:06.045Z,10.73
2023-03-21T18:53:32.615Z,10.88
2023-03-21T18:55:59.079Z,12.35
2023-03-21T18:58:25.547Z,13.65
2023-03-21T19:00:53.465Z,13.73
2023-03-21T19:03:34.859Z,11.65
2023-03-21T19:06:03.638Z,12.80
2023-03-21T19:08:30.737Z,13.18
2023-03-21T19:11:00.182Z,12.48
2023-03-21T19:13:28.848Z,13.73
2023-03-21T19:15:56.230Z,12.10
2023-03-21T19:18:41.456Z,13.05
2023-03-21T19:21:09.087Z,13.48
2023-03-21T19:24:18.068Z,12.73
2023-03-21T19:26:27.532Z,12.98
2023-03-21T19:28:55.045Z,11.75
2023-03-21T19:31:22.001Z,12.13
2023-03-21T19:33:48.467Z,11.57
2023-03-21T19:36:21.774Z,12.32
2023-03-21T19:38:49.139Z,11.52
2023-03-21T19:41:16.570Z,13.65
2023-03-21T19:43:53.234Z,13.02
2023-03-21T19:46:23.039Z,15.40
2023-03-21T19:48:50.057Z,15.15
2023-03-21T19:51:32.928Z,13.25
2023-03-21T19:54:00.641Z,14.60
2023-03-21T19:56:27.984Z,14.05
2023-03-21T19:58:57.344Z,12.68
2023-03-21T20:01:24.662Z,13.13
2023-03-21T20:03:51.731Z,14.52
2023-03-21T20:06:18.617Z,14.85
2023-03-21T20:11:32.196Z,15.27
2023-03-21T20:13:59.805Z,15.65
2023-03-21T20:16:34.600Z,15.85
2023-03-21T20:19:01.240Z,15.73
2023-03-21T20:21:34.860Z,16.00
2023-03-21T20:24:06.844Z,15.88
2023-03-21T20:26:34.133Z,15.00
2023-03-21T20:29:37.212Z,15.13
2023-03-21T20:31:47.424Z,15.88
2023-03-21T20:34:13.908Z,15.98
2023-03-21T20:36:42.717Z,15.05
2023-03-21T20:39:09.618Z,13.82
2023-03-21T20:41:35.964Z,14.93
2023-03-21T20:46:48.753Z,14.55
2023-03-21T20:49:15.393Z,13.88
2023-03-21T20:52:45.964Z,14.98
2023-03-21T20:54:29.482Z,16.20
2023-03-21T20:56:58.160Z,15.43
2023-03-21T20:59:28.103Z,16.80
2023-03-21T21:01:57.174Z,19.30
2023-03-21T21:04:39.517Z,17.50
2023-03-21T21:07:18.310Z,16.63
2023-03-21T21:09:45.625Z,14.88
2023-03-21T21:12:13.774Z,14.93
2023-03-21T21:14:44.022Z,15.90
2023-03-21T21:17:30.749Z,17.17
2023-03-21T21:19:56.861Z,18.48
2023-03-21T21:22:23.338Z,16.35
2023-03-21T21:24:49.759Z,18.08
2023-03-21T21:27:16.202Z,18.60
2023-03-21T21:29:43.193Z,19.00
2023-03-21T21:32:09.577Z,18.25
2023-03-21T21:34:38.281Z,17.73
2023-03-21T21:37:05.013Z,19.08
2023-03-21T21:39:37.643Z,18.13
2023-03-21T21:42:04.623Z,18.33
2023-03-21T21:44:31.541Z,17.95
2023-03-21T21:46:57.906Z,17.48
2023-03-21T21:49:24.487Z,17.30
2023-03-21T21:51:50.877Z,18.88
2023-03-21T21:54:18.056Z,16.90
2023-03-21T21:56:48.370Z,16.00
2023-03-21T21:59:18.415Z,15.85
2023-03-21T22:01:46.405Z,17.88
2023-03-21T22:04:14.320Z,16.55
2023-03-21T22:06:42.095Z,16.38
2023-03-21T22:09:08.522Z,19.73
2023-03-21T22:11:35.219Z,16.98
2023-03-21T22:14:02.045Z,14.00
2023-03-21T22:16:31.402Z,13.30
2023-03-21T22:18:59.531Z,12.90
2023-03-21T22:21:27.328Z,15.13
2023-03-21T22:23:55.751Z,14.88
2023-03-21T22:26:22.621Z,13.80
2023-03-21T22:28:49.029Z,14.05
2023-03-21T22:31:16.542Z,13.18
2023-03-21T22:33:43.878Z,13.98
2023-03-21T22:36:11.788Z,12.68
2023-03-21T22:38:38.559Z,14.27
2023-03-21T22:41:05.874Z,14.35
2023-03-21T22:43:35.779Z,13.63
2023-03-21T22:46:03.789Z,14.30
2023-03-21T22:48:31.474Z,13.85
2023-03-21T22:50:58.849Z,13.15
2023-03-21T22:53:25.761Z,12.95
2023-03-21T22:55:53.261Z,13.50
2023-03-21T22:58:21.523Z,13.00
2023-03-21T23:00:48.865Z,12.20
2023-03-21T23:03:17.826Z,12.40
2023-03-21T23:05:45.147Z,14.48
2023-03-21T23:08:12.508Z,12.93
2023-03-21T23:10:40.066Z,12.93
2023-03-21T23:13:07.379Z,12.40
2023-03-21T23:15:33.792Z,13.23
2023-03-21T23:18:00.294Z,14.18
2023-03-21T23:20:30.500Z,15.05
2023-03-21T23:22:57.079Z,14.38
2023-03-21T23:25:25.044Z,15.93
2023-03-21T23:27:51.528Z,15.60
2023-03-21T23:30:18.202Z,16.20
2023-03-21T23:32:44.705Z,15.13
2023-03-21T23:35:11.381Z,14.65
2023-03-21T23:37:37.798Z,14.10
2023-03-21T23:40:09.145Z,14.43
2023-03-21T23:42:36.244Z,14.23
2023-03-21T23:45:02.698Z,13.10
2023-03-21T23:47:30.763Z,14.65
2023-03-21T23:49:57.167Z,14.23
2023-03-21T23:52:23.493Z,14.90
2023-03-21T23:54:49.880Z,14.68
2023-03-21T23:57:18.122Z,15.20
2023-03-21T23:59:47.669Z,14.48
